sensor_id;sensor_type;location;lat;lon;timestamp;noise_LAeq;noise_LA_min;noise_LA_max;noise_LA01;noise_LA95
76339;Laerm;26644;50.248;19.032;2024-02-21T00:00:49;50.10;46.12;55.08;;
76339;Laerm;26644;50.248;19.032;2024-02-21T00:03:53;50.40;42.35;59.05;;
76339;Laerm;26644;50.248;19.032;2024-02-21T00:06:59;49.31;43.09;55.07;;
76339;Laerm;26644;50.248;19.032;2024-02-21T00:10:08;49.44;42.07;55.50;;
76339;Laerm;26644;50.248;19.032;2024-02-21T00:13:12;49.79;42.95;55.73;;
76339;Laerm;26644;50.248;19.032;2024-02-21T00:16:17;48.79;41.10;60.43;;
76339;Laerm;26644;50.248;19.032;2024-02-21T00:19:21;52.62;45.86;60.61;;
76339;Laerm;26644;50.248;19.032;2024-02-21T00:22:26;50.64;44.76;58.60;;
76339;Laerm;26644;50.248;19.032;2024-02-21T00:25:35;48.78;42.51;55.27;;
76339;Laerm;26644;50.248;19.032;2024-02-21T00:28:40;50.77;42.94;57.94;;
76339;Laerm;26644;50.248;19.032;2024-02-21T00:31:44;47.83;42.31;54.31;;
76339;Laerm;26644;50.248;19.032;2024-02-21T00:34:49;47.93;41.55;55.07;;
76339;Laerm;26644;50.248;19.032;2024-02-21T00:37:53;50.05;43.91;54.74;;
76339;Laerm;26644;50.248;19.032;2024-02-21T00:41:01;49.91;43.48;55.42;;
76339;Laerm;26644;50.248;19.032;2024-02-21T00:44:06;50.80;44.98;56.42;;
76339;Laerm;26644;50.248;19.032;2024-02-21T00:47:12;50.32;43.62;56.83;;
76339;Laerm;26644;50.248;19.032;2024-02-21T00:50:16;49.74;43.43;55.47;;
76339;Laerm;26644;50.248;19.032;2024-02-21T00:53:21;50.73;45.01;56.20;;
76339;Laerm;26644;50.248;19.032;2024-02-21T00:56:28;49.49;42.66;60.62;;
76339;Laerm;26644;50.248;19.032;2024-02-21T00:59:33;49.26;42.42;60.10;;
76339;Laerm;26644;50.248;19.032;2024-02-21T01:02:37;50.04;43.84;56.22;;
76339;Laerm;26644;50.248;19.032;2024-02-21T01:05:42;51.11;44.51;56.33;;
76339;Laerm;26644;50.248;19.032;2024-02-21T01:08:47;50.32;45.30;56.24;;
76339;Laerm;26644;50.248;19.032;2024-02-21T01:11:54;50.59;45.35;59.88;;
76339;Laerm;26644;50.248;19.032;2024-02-21T01:14:59;50.56;43.62;56.81;;
76339;Laerm;26644;50.248;19.032;2024-02-21T01:18:04;51.50;45.73;59.45;;
76339;Laerm;26644;50.248;19.032;2024-02-21T01:21:09;50.03;44.32;57.04;;
76339;Laerm;26644;50.248;19.032;2024-02-21T01:24:13;48.59;41.93;54.45;;
76339;Laerm;26644;50.248;19.032;2024-02-21T01:27:20;49.28;42.56;56.25;;
76339;Laerm;26644;50.248;19.032;2024-02-21T01:30:25;49.32;44.70;55.82;;
76339;Laerm;26644;50.248;19.032;2024-02-21T01:33:29;49.55;42.31;56.92;;
76339;Laerm;26644;50.248;19.032;2024-02-21T01:36:36;50.04;40.70;59.42;;
76339;Laerm;26644;50.248;19.032;2024-02-21T01:39:42;51.26;43.09;59.77;;
76339;Laerm;26644;50.248;19.032;2024-02-21T01:42:50;50.38;42.66;58.94;;
76339;Laerm;26644;50.248;19.032;2024-02-21T01:45:57;52.85;45.18;66.61;;
76339;Laerm;26644;50.248;19.032;2024-02-21T01:49:02;52.71;45.85;58.08;;
76339;Laerm;26644;50.248;19.032;2024-02-21T01:52:08;51.08;44.27;59.79;;
76339;Laerm;26644;50.248;19.032;2024-02-21T01:55:16;50.21;42.37;56.72;;
76339;Laerm;26644;50.248;19.032;2024-02-21T01:58:25;50.88;45.34;57.63;;
76339;Laerm;26644;50.248;19.032;2024-02-21T02:01:31;50.34;44.05;59.07;;
76339;Laerm;26644;50.248;19.032;2024-02-21T02:04:38;51.01;46.32;56.76;;
76339;Laerm;26644;50.248;19.032;2024-02-21T02:07:43;49.70;43.42;57.14;;
76339;Laerm;26644;50.248;19.032;2024-02-21T02:10:47;49.83;43.52;56.27;;
76339;Laerm;26644;50.248;19.032;2024-02-21T02:13:55;50.77;46.00;57.21;;
76339;Laerm;26644;50.248;19.032;2024-02-21T02:16:59;49.86;44.84;56.21;;
76339;Laerm;26644;50.248;19.032;2024-02-21T02:20:05;53.38;45.29;64.36;;
76339;Laerm;26644;50.248;19.032;2024-02-21T02:23:12;49.89;43.03;58.69;;
76339;Laerm;26644;50.248;19.032;2024-02-21T02:26:21;50.89;44.95;57.72;;
76339;Laerm;26644;50.248;19.032;2024-02-21T02:29:25;51.89;45.86;57.88;;
76339;Laerm;26644;50.248;19.032;2024-02-21T02:32:30;50.57;44.99;57.08;;
76339;Laerm;26644;50.248;19.032;2024-02-21T02:35:34;50.36;45.11;60.84;;
76339;Laerm;26644;50.248;19.032;2024-02-21T02:38:39;49.70;45.78;54.65;;
76339;Laerm;26644;50.248;19.032;2024-02-21T02:41:46;52.13;46.56;57.37;;
76339;Laerm;26644;50.248;19.032;2024-02-21T02:44:51;50.80;42.95;56.51;;
76339;Laerm;26644;50.248;19.032;2024-02-21T02:47:56;51.06;45.39;57.67;;
76339;Laerm;26644;50.248;19.032;2024-02-21T02:51:01;49.58;44.34;55.00;;
76339;Laerm;26644;50.248;19.032;2024-02-21T02:54:05;51.95;45.42;59.84;;
76339;Laerm;26644;50.248;19.032;2024-02-21T02:57:12;50.91;45.21;59.15;;
76339;Laerm;26644;50.248;19.032;2024-02-21T03:00:18;51.62;45.62;60.22;;
76339;Laerm;26644;50.248;19.032;2024-02-21T03:03:22;53.16;47.75;61.37;;
76339;Laerm;26644;50.248;19.032;2024-02-21T03:06:27;52.16;46.95;60.67;;
76339;Laerm;26644;50.248;19.032;2024-02-21T03:09:31;50.51;45.21;56.28;;
76339;Laerm;26644;50.248;19.032;2024-02-21T03:12:39;52.04;45.59;58.43;;
76339;Laerm;26644;50.248;19.032;2024-02-21T03:15:43;52.72;44.36;57.51;;
76339;Laerm;26644;50.248;19.032;2024-02-21T03:18:48;50.40;44.06;57.05;;
76339;Laerm;26644;50.248;19.032;2024-02-21T03:21:53;52.20;45.95;60.55;;
76339;Laerm;26644;50.248;19.032;2024-02-21T03:24:58;51.93;46.48;57.66;;
76339;Laerm;26644;50.248;19.032;2024-02-21T03:28:05;52.76;46.93;61.71;;
76339;Laerm;26644;50.248;19.032;2024-02-21T03:31:11;52.91;46.98;59.50;;
76339;Laerm;26644;50.248;19.032;2024-02-21T03:34:16;53.07;47.52;59.37;;
76339;Laerm;26644;50.248;19.032;2024-02-21T03:37:21;53.07;47.36;58.41;;
76339;Laerm;26644;50.248;19.032;2024-02-21T03:40:25;51.19;45.42;56.77;;
76339;Laerm;26644;50.248;19.032;2024-02-21T03:43:32;53.43;48.16;58.30;;
76339;Laerm;26644;50.248;19.032;2024-02-21T03:46:37;53.69;48.20;66.00;;
76339;Laerm;26644;50.248;19.032;2024-02-21T03:49:42;53.25;47.63;58.69;;
76339;Laerm;26644;50.248;19.032;2024-02-21T03:52:46;53.63;47.12;58.09;;
76339;Laerm;26644;50.248;19.032;2024-02-21T03:55:51;54.07;49.84;58.61;;
76339;Laerm;26644;50.248;19.032;2024-02-21T03:58:58;52.79;48.19;58.74;;
76339;Laerm;26644;50.248;19.032;2024-02-21T04:02:03;53.96;48.10;59.86;;
76339;Laerm;26644;50.248;19.032;2024-02-21T04:05:09;53.15;49.05;61.52;;
76339;Laerm;26644;50.248;19.032;2024-02-21T04:08:15;53.17;47.03;58.07;;
76339;Laerm;26644;50.248;19.032;2024-02-21T04:11:19;53.91;49.36;58.25;;
76339;Laerm;26644;50.248;19.032;2024-02-21T04:14:27;54.72;50.20;62.19;;
76339;Laerm;26644;50.248;19.032;2024-02-21T04:17:31;54.35;49.77;61.70;;
76339;Laerm;26644;50.248;19.032;2024-02-21T04:20:36;54.66;51.06;61.73;;
76339;Laerm;26644;50.248;19.032;2024-02-21T04:23:40;55.16;51.08;59.83;;
76339;Laerm;26644;50.248;19.032;2024-02-21T04:26:45;54.83;51.07;60.12;;
76339;Laerm;26644;50.248;19.032;2024-02-21T04:29:52;55.29;50.68;58.73;;
76339;Laerm;26644;50.248;19.032;2024-02-21T04:32:57;55.35;52.24;59.07;;
76339;Laerm;26644;50.248;19.032;2024-02-21T04:36:02;55.87;52.38;59.91;;
76339;Laerm;26644;50.248;19.032;2024-02-21T04:39:07;55.25;51.00;60.18;;
76339;Laerm;26644;50.248;19.032;2024-02-21T04:42:11;56.00;52.17;59.17;;
76339;Laerm;26644;50.248;19.032;2024-02-21T04:45:18;56.60;52.96;60.19;;
76339;Laerm;26644;50.248;19.032;2024-02-21T04:48:23;56.30;53.00;60.80;;
76339;Laerm;26644;50.248;19.032;2024-02-21T04:51:27;56.23;52.46;62.22;;
76339;Laerm;26644;50.248;19.032;2024-02-21T04:54:32;56.62;52.38;62.14;;
76339;Laerm;26644;50.248;19.032;2024-02-21T04:57:37;56.61;52.98;62.88;;
76339;Laerm;26644;50.248;19.032;2024-02-21T05:00:44;55.96;52.42;59.97;;
76339;Laerm;26644;50.248;19.032;2024-02-21T05:03:49;56.70;53.54;61.23;;
76339;Laerm;26644;50.248;19.032;2024-02-21T05:06:53;56.37;51.89;60.85;;
76339;Laerm;26644;50.248;19.032;2024-02-21T05:09:58;56.70;52.64;61.77;;
76339;Laerm;26644;50.248;19.032;2024-02-21T05:13:02;57.13;52.57;61.49;;
76339;Laerm;26644;50.248;19.032;2024-02-21T05:16:10;56.94;52.90;60.65;;
76339;Laerm;26644;50.248;19.032;2024-02-21T05:19:14;56.88;52.67;60.53;;
76339;Laerm;26644;50.248;19.032;2024-02-21T05:22:19;57.40;52.81;63.52;;
76339;Laerm;26644;50.248;19.032;2024-02-21T05:25:23;57.41;54.81;60.99;;
76339;Laerm;26644;50.248;19.032;2024-02-21T05:28:28;57.60;54.05;62.44;;
76339;Laerm;26644;50.248;19.032;2024-02-21T05:31:56;57.77;54.26;69.57;;
76339;Laerm;26644;50.248;19.032;2024-02-21T05:35:02;57.83;54.38;69.88;;
76339;Laerm;26644;50.248;19.032;2024-02-21T05:38:06;57.89;55.30;61.78;;
76339;Laerm;26644;50.248;19.032;2024-02-21T05:41:13;58.41;54.90;69.19;;
76339;Laerm;26644;50.248;19.032;2024-02-21T05:44:18;58.03;54.31;62.65;;
76339;Laerm;26644;50.248;19.032;2024-02-21T05:47:26;58.07;53.88;68.47;;
76339;Laerm;26644;50.248;19.032;2024-02-21T05:50:30;56.90;54.09;62.54;;
76339;Laerm;26644;50.248;19.032;2024-02-21T05:53:35;57.03;54.00;68.50;;
76339;Laerm;26644;50.248;19.032;2024-02-21T05:56:44;57.20;53.98;64.91;;
76339;Laerm;26644;50.248;19.032;2024-02-21T05:59:49;57.25;53.43;69.64;;
76339;Laerm;26644;50.248;19.032;2024-02-21T06:02:56;58.38;53.97;75.59;;
76339;Laerm;26644;50.248;19.032;2024-02-21T06:06:02;59.81;54.53;80.38;;
76339;Laerm;26644;50.248;19.032;2024-02-21T06:09:07;59.44;54.98;77.85;;
76339;Laerm;26644;50.248;19.032;2024-02-21T06:12:12;59.38;54.97;75.81;;
76339;Laerm;26644;50.248;19.032;2024-02-21T06:15:16;61.45;55.27;87.45;;
76339;Laerm;26644;50.248;19.032;2024-02-21T06:18:23;61.15;55.08;81.86;;
76339;Laerm;26644;50.248;19.032;2024-02-21T06:21:29;61.34;54.74;86.29;;
76339;Laerm;26644;50.248;19.032;2024-02-21T06:24:34;60.45;55.81;77.29;;
76339;Laerm;26644;50.248;19.032;2024-02-21T06:27:39;60.55;54.81;84.52;;
76339;Laerm;26644;50.248;19.032;2024-02-21T06:30:44;59.28;55.47;74.58;;
76339;Laerm;26644;50.248;19.032;2024-02-21T06:33:50;59.60;55.05;71.80;;
76339;Laerm;26644;50.248;19.032;2024-02-21T06:36:55;59.33;55.24;70.44;;
76339;Laerm;26644;50.248;19.032;2024-02-21T06:40:00;59.62;54.48;81.70;;
76339;Laerm;26644;50.248;19.032;2024-02-21T06:43:06;59.89;56.73;77.93;;
76339;Laerm;26644;50.248;19.032;2024-02-21T06:46:10;59.46;55.88;72.73;;
76339;Laerm;26644;50.248;19.032;2024-02-21T06:49:17;58.70;54.48;72.31;;
76339;Laerm;26644;50.248;19.032;2024-02-21T06:52:21;59.84;56.93;74.79;;
76339;Laerm;26644;50.248;19.032;2024-02-21T06:55:27;59.27;56.18;75.06;;
76339;Laerm;26644;50.248;19.032;2024-02-21T06:58:31;60.65;57.26;74.91;;
76339;Laerm;26644;50.248;19.032;2024-02-21T07:01:36;58.67;55.43;63.51;;
76339;Laerm;26644;50.248;19.032;2024-02-21T07:04:43;58.19;54.56;65.77;;
76339;Laerm;26644;50.248;19.032;2024-02-21T07:07:48;58.20;53.69;64.08;;
76339;Laerm;26644;50.248;19.032;2024-02-21T07:10:53;58.82;55.69;66.33;;
76339;Laerm;26644;50.248;19.032;2024-02-21T07:13:58;58.79;55.52;65.48;;
76339;Laerm;26644;50.248;19.032;2024-02-21T07:17:03;58.65;54.96;64.34;;
76339;Laerm;26644;50.248;19.032;2024-02-21T07:20:11;58.84;55.28;66.95;;
76339;Laerm;26644;50.248;19.032;2024-02-21T07:23:16;58.96;55.29;67.60;;
76339;Laerm;26644;50.248;19.032;2024-02-21T07:26:21;58.97;54.82;68.04;;
76339;Laerm;26644;50.248;19.032;2024-02-21T07:29:25;58.29;54.16;72.48;;
76339;Laerm;26644;50.248;19.032;2024-02-21T07:32:31;58.42;54.45;66.75;;
76339;Laerm;26644;50.248;19.032;2024-02-21T07:35:38;58.87;55.60;67.87;;
76339;Laerm;26644;50.248;19.032;2024-02-21T07:38:44;58.96;55.66;71.48;;
76339;Laerm;26644;50.248;19.032;2024-02-21T07:41:48;59.69;55.19;68.63;;
76339;Laerm;26644;50.248;19.032;2024-02-21T07:44:54;59.31;55.04;69.55;;
76339;Laerm;26644;50.248;19.032;2024-02-21T07:47:58;58.38;54.24;70.12;;
76339;Laerm;26644;50.248;19.032;2024-02-21T07:51:07;59.17;55.85;66.53;;
76339;Laerm;26644;50.248;19.032;2024-02-21T07:54:11;59.17;54.95;71.70;;
76339;Laerm;26644;50.248;19.032;2024-02-21T07:57:17;58.97;54.27;78.70;;
76339;Laerm;26644;50.248;19.032;2024-02-21T08:00:22;58.97;55.13;73.02;;
76339;Laerm;26644;50.248;19.032;2024-02-21T08:03:27;58.85;53.10;69.76;;
76339;Laerm;26644;50.248;19.032;2024-02-21T08:06:34;58.61;54.05;74.22;;
76339;Laerm;26644;50.248;19.032;2024-02-21T08:09:40;58.46;54.43;70.89;;
76339;Laerm;26644;50.248;19.032;2024-02-21T08:12:44;58.99;54.90;72.16;;
76339;Laerm;26644;50.248;19.032;2024-02-21T08:15:50;58.55;53.90;73.92;;
76339;Laerm;26644;50.248;19.032;2024-02-21T08:18:54;59.98;54.99;72.91;;
76339;Laerm;26644;50.248;19.032;2024-02-21T08:22:03;58.48;54.26;66.73;;
76339;Laerm;26644;50.248;19.032;2024-02-21T08:25:08;58.20;54.34;64.26;;
76339;Laerm;26644;50.248;19.032;2024-02-21T08:28:14;58.32;53.34;71.60;;
76339;Laerm;26644;50.248;19.032;2024-02-21T08:31:21;58.47;53.85;70.14;;
76339;Laerm;26644;50.248;19.032;2024-02-21T08:34:30;58.20;54.38;67.80;;
76339;Laerm;26644;50.248;19.032;2024-02-21T08:37:38;58.34;54.78;68.16;;
76339;Laerm;26644;50.248;19.032;2024-02-21T08:40:44;58.91;55.06;68.40;;
76339;Laerm;26644;50.248;19.032;2024-02-21T08:43:49;59.51;54.89;74.18;;
76339;Laerm;26644;50.248;19.032;2024-02-21T08:46:56;59.27;54.41;69.90;;
76339;Laerm;26644;50.248;19.032;2024-02-21T08:50:02;59.58;54.79;70.85;;
76339;Laerm;26644;50.248;19.032;2024-02-21T08:53:10;59.22;54.48;72.47;;
76339;Laerm;26644;50.248;19.032;2024-02-21T08:56:15;58.83;54.90;71.86;;
76339;Laerm;26644;50.248;19.032;2024-02-21T08:59:21;58.51;54.22;67.40;;
76339;Laerm;26644;50.248;19.032;2024-02-21T09:02:26;58.63;54.92;68.03;;
76339;Laerm;26644;50.248;19.032;2024-02-21T09:05:31;59.15;54.54;74.27;;
76339;Laerm;26644;50.248;19.032;2024-02-21T09:08:39;58.41;53.57;71.64;;
76339;Laerm;26644;50.248;19.032;2024-02-21T09:11:44;60.45;53.57;75.36;;
76339;Laerm;26644;50.248;19.032;2024-02-21T09:14:49;61.27;54.36;72.89;;
76339;Laerm;26644;50.248;19.032;2024-02-21T09:17:54;60.38;55.26;72.83;;
76339;Laerm;26644;50.248;19.032;2024-02-21T09:20:58;69.47;54.63;83.07;;
76339;Laerm;26644;50.248;19.032;2024-02-21T09:24:07;69.37;55.08;79.83;;
76339;Laerm;26644;50.248;19.032;2024-02-21T09:27:11;70.35;55.04;81.30;;
76339;Laerm;26644;50.248;19.032;2024-02-21T09:30:17;71.60;55.43;81.48;;
76339;Laerm;26644;50.248;19.032;2024-02-21T09:33:21;67.61;55.56;82.12;;
76339;Laerm;26644;50.248;19.032;2024-02-21T09:36:27;69.80;54.59;81.83;;
76339;Laerm;26644;50.248;19.032;2024-02-21T09:39:34;66.64;54.59;79.66;;
76339;Laerm;26644;50.248;19.032;2024-02-21T09:42:40;72.36;54.32;82.02;;
76339;Laerm;26644;50.248;19.032;2024-02-21T09:45:46;71.85;54.67;84.23;;
76339;Laerm;26644;50.248;19.032;2024-02-21T09:49:19;73.98;54.56;86.77;;
76339;Laerm;26644;50.248;19.032;2024-02-21T09:52:27;76.11;54.96;86.68;;
76339;Laerm;26644;50.248;19.032;2024-02-21T09:55:39;60.77;55.44;72.24;;
76339;Laerm;26644;50.248;19.032;2024-02-21T09:58:44;72.93;54.52;87.70;;
76339;Laerm;26644;50.248;19.032;2024-02-21T10:01:51;72.84;55.20;87.95;;
76339;Laerm;26644;50.248;19.032;2024-02-21T10:04:56;76.03;53.36;89.91;;
76339;Laerm;26644;50.248;19.032;2024-02-21T10:08:03;75.21;54.31;87.18;;
76339;Laerm;26644;50.248;19.032;2024-02-21T10:11:10;71.58;55.68;83.85;;
76339;Laerm;26644;50.248;19.032;2024-02-21T10:14:16;60.07;55.08;81.78;;
76339;Laerm;26644;50.248;19.032;2024-02-21T10:17:20;66.34;54.00;83.89;;
76339;Laerm;26644;50.248;19.032;2024-02-21T10:20:26;73.69;55.34;86.93;;
76339;Laerm;26644;50.248;19.032;2024-02-21T10:23:42;69.47;55.65;84.86;;
76339;Laerm;26644;50.248;19.032;2024-02-21T10:27:00;66.25;55.30;84.61;;
76339;Laerm;26644;50.248;19.032;2024-02-21T10:30:07;69.64;55.33;82.56;;
76339;Laerm;26644;50.248;19.032;2024-02-21T10:33:15;72.25;56.70;87.94;;
76339;Laerm;26644;50.248;19.032;2024-02-21T10:36:23;72.58;56.42;85.04;;
76339;Laerm;26644;50.248;19.032;2024-02-21T10:39:29;72.24;57.45;86.48;;
76339;Laerm;26644;50.248;19.032;2024-02-21T10:42:38;69.97;56.27;88.36;;
76339;Laerm;26644;50.248;19.032;2024-02-21T10:45:47;69.44;56.95;83.57;;
76339;Laerm;26644;50.248;19.032;2024-02-21T10:49:07;78.20;56.85;87.39;;
76339;Laerm;26644;50.248;19.032;2024-02-21T10:52:27;73.84;58.83;88.49;;
76339;Laerm;26644;50.248;19.032;2024-02-21T10:55:42;75.05;60.72;87.32;;
76339;Laerm;26644;50.248;19.032;2024-02-21T10:58:53;73.50;58.84;86.45;;
76339;Laerm;26644;50.248;19.032;2024-02-21T11:01:58;72.05;59.13;89.52;;
76339;Laerm;26644;50.248;19.032;2024-02-21T11:05:05;72.99;59.27;88.43;;
76339;Laerm;26644;50.248;19.032;2024-02-21T11:08:11;62.07;56.44;85.92;;
76339;Laerm;26644;50.248;19.032;2024-02-21T11:11:18;59.71;55.40;71.08;;
76339;Laerm;26644;50.248;19.032;2024-02-21T11:14:27;59.48;55.65;66.69;;
76339;Laerm;26644;50.248;19.032;2024-02-21T11:17:34;59.69;55.57;67.93;;
76339;Laerm;26644;50.248;19.032;2024-02-21T11:20:39;64.09;54.07;88.78;;
76339;Laerm;26644;50.248;19.032;2024-02-21T11:23:55;63.25;58.33;74.73;;
76339;Laerm;26644;50.248;19.032;2024-02-21T11:27:09;64.05;57.71;80.77;;
76339;Laerm;26644;50.248;19.032;2024-02-21T11:30:17;60.81;56.48;77.92;;
76339;Laerm;26644;50.248;19.032;2024-02-21T11:33:24;59.00;54.24;68.41;;
76339;Laerm;26644;50.248;19.032;2024-02-21T11:36:29;58.86;54.56;63.01;;
76339;Laerm;26644;50.248;19.032;2024-02-21T11:39:33;58.48;53.87;70.79;;
76339;Laerm;26644;50.248;19.032;2024-02-21T11:42:38;58.28;55.03;63.42;;
76339;Laerm;26644;50.248;19.032;2024-02-21T11:45:45;59.47;55.50;68.13;;
76339;Laerm;26644;50.248;19.032;2024-02-21T11:48:50;72.69;55.16;85.86;;
76339;Laerm;26644;50.248;19.032;2024-02-21T11:52:04;72.13;55.71;85.72;;
76339;Laerm;26644;50.248;19.032;2024-02-21T11:55:09;74.01;54.73;86.51;;
76339;Laerm;26644;50.248;19.032;2024-02-21T11:58:15;71.12;54.95;84.94;;
76339;Laerm;26644;50.248;19.032;2024-02-21T12:01:23;72.03;55.00;86.54;;
76339;Laerm;26644;50.248;19.032;2024-02-21T12:04:29;60.52;55.75;77.58;;
76339;Laerm;26644;50.248;19.032;2024-02-21T12:07:36;70.28;54.04;86.09;;
76339;Laerm;26644;50.248;19.032;2024-02-21T12:10:42;58.84;54.60;72.15;;
76339;Laerm;26644;50.248;19.032;2024-02-21T12:14:00;71.62;55.48;87.23;;
76339;Laerm;26644;50.248;19.032;2024-02-21T12:17:08;72.17;55.43;86.71;;
76339;Laerm;26644;50.248;19.032;2024-02-21T12:20:14;67.31;54.48;82.84;;
76339;Laerm;26644;50.248;19.032;2024-02-21T12:23:19;72.28;55.55;82.55;;
76339;Laerm;26644;50.248;19.032;2024-02-21T12:26:24;71.82;54.58;84.37;;
76339;Laerm;26644;50.248;19.032;2024-02-21T12:29:28;68.50;53.59;80.51;;
76339;Laerm;26644;50.248;19.032;2024-02-21T12:32:36;73.55;54.13;83.81;;
76339;Laerm;26644;50.248;19.032;2024-02-21T12:35:40;69.11;54.41;80.53;;
76339;Laerm;26644;50.248;19.032;2024-02-21T12:38:45;72.08;55.10;83.18;;
76339;Laerm;26644;50.248;19.032;2024-02-21T12:41:50;70.17;55.12;86.05;;
76339;Laerm;26644;50.248;19.032;2024-02-21T12:44:56;72.10;54.66;81.39;;
76339;Laerm;26644;50.248;19.032;2024-02-21T12:48:03;71.72;56.12;85.01;;
76339;Laerm;26644;50.248;19.032;2024-02-21T12:51:09;64.58;55.45;82.49;;
76339;Laerm;26644;50.248;19.032;2024-02-21T12:54:13;58.73;54.92;65.18;;
76339;Laerm;26644;50.248;19.032;2024-02-21T12:57:18;58.27;53.74;69.02;;
76339;Laerm;26644;50.248;19.032;2024-02-21T13:00:23;69.01;54.67;85.08;;
76339;Laerm;26644;50.248;19.032;2024-02-21T13:03:32;72.87;54.80;86.18;;
76339;Laerm;26644;50.248;19.032;2024-02-21T13:06:36;75.03;55.74;85.49;;
76339;Laerm;26644;50.248;19.032;2024-02-21T13:09:41;63.14;56.06;80.45;;
76339;Laerm;26644;50.248;19.032;2024-02-21T13:12:46;72.83;55.81;80.94;;
76339;Laerm;26644;50.248;19.032;2024-02-21T13:15:51;72.27;54.95;86.41;;
76339;Laerm;26644;50.248;19.032;2024-02-21T13:18:58;75.09;55.45;84.48;;
76339;Laerm;26644;50.248;19.032;2024-02-21T13:22:03;65.06;55.30;88.12;;
76339;Laerm;26644;50.248;19.032;2024-02-21T13:25:08;77.23;55.34;94.55;;
76339;Laerm;26644;50.248;19.032;2024-02-21T13:28:17;68.26;55.06;85.17;;
76339;Laerm;26644;50.248;19.032;2024-02-21T13:31:21;76.31;55.11;89.83;;
76339;Laerm;26644;50.248;19.032;2024-02-21T13:34:29;73.78;54.58;88.54;;
76339;Laerm;26644;50.248;19.032;2024-02-21T13:37:33;73.79;55.33;86.54;;
76339;Laerm;26644;50.248;19.032;2024-02-21T13:40:39;77.03;55.71;88.98;;
76339;Laerm;26644;50.248;19.032;2024-02-21T13:43:43;76.35;54.88;88.01;;
76339;Laerm;26644;50.248;19.032;2024-02-21T13:46:48;73.14;55.87;87.81;;
76339;Laerm;26644;50.248;19.032;2024-02-21T13:49:55;73.20;55.49;86.96;;
76339;Laerm;26644;50.248;19.032;2024-02-21T13:53:00;74.17;55.14;87.71;;
76339;Laerm;26644;50.248;19.032;2024-02-21T13:56:05;59.11;55.65;64.81;;
76339;Laerm;26644;50.248;19.032;2024-02-21T13:59:12;72.62;55.15;84.51;;
76339;Laerm;26644;50.248;19.032;2024-02-21T14:02:16;73.34;56.07;84.55;;
76339;Laerm;26644;50.248;19.032;2024-02-21T14:05:23;69.48;55.95;88.43;;
76339;Laerm;26644;50.248;19.032;2024-02-21T14:08:27;74.33;55.04;85.74;;
76339;Laerm;26644;50.248;19.032;2024-02-21T14:11:33;71.68;54.66;84.52;;
76339;Laerm;26644;50.248;19.032;2024-02-21T14:14:39;70.32;55.55;83.68;;
76339;Laerm;26644;50.248;19.032;2024-02-21T14:17:45;73.09;55.81;87.32;;
76339;Laerm;26644;50.248;19.032;2024-02-21T14:20:51;61.27;55.26;86.35;;
76339;Laerm;26644;50.248;19.032;2024-02-21T14:23:56;61.77;55.57;79.06;;
76339;Laerm;26644;50.248;19.032;2024-02-21T14:27:04;60.82;55.61;81.72;;
76339;Laerm;26644;50.248;19.032;2024-02-21T14:30:11;60.33;55.82;71.68;;
76339;Laerm;26644;50.248;19.032;2024-02-21T14:33:15;60.99;55.79;79.34;;
76339;Laerm;26644;50.248;19.032;2024-02-21T14:36:23;61.68;56.44;80.40;;
76339;Laerm;26644;50.248;19.032;2024-02-21T14:39:27;60.63;56.65;77.15;;
76339;Laerm;26644;50.248;19.032;2024-02-21T14:42:32;61.51;56.01;81.22;;
76339;Laerm;26644;50.248;19.032;2024-02-21T14:45:36;59.68;55.59;73.48;;
76339;Laerm;26644;50.248;19.032;2024-02-21T14:48:41;60.17;56.61;68.53;;
76339;Laerm;26644;50.248;19.032;2024-02-21T14:51:49;60.97;56.17;80.12;;
76339;Laerm;26644;50.248;19.032;2024-02-21T14:54:54;61.96;55.91;85.54;;
76339;Laerm;26644;50.248;19.032;2024-02-21T14:57:58;60.28;56.29;78.38;;
76339;Laerm;26644;50.248;19.032;2024-02-21T15:01:32;60.83;55.37;83.27;;
76339;Laerm;26644;50.248;19.032;2024-02-21T15:04:44;59.74;55.41;77.86;;
76339;Laerm;26644;50.248;19.032;2024-02-21T15:07:52;66.65;56.42;98.24;;
76339;Laerm;26644;50.248;19.032;2024-02-21T15:10:56;73.97;56.43;101.97;;
76339;Laerm;26644;50.248;19.032;2024-02-21T15:14:01;79.28;56.87;106.27;;
76339;Laerm;26644;50.248;19.032;2024-02-21T15:17:05;60.26;56.14;76.94;;
76339;Laerm;26644;50.248;19.032;2024-02-21T15:20:11;60.99;57.24;77.96;;
76339;Laerm;26644;50.248;19.032;2024-02-21T15:23:18;60.31;56.36;72.80;;
76339;Laerm;26644;50.248;19.032;2024-02-21T15:26:25;59.93;55.64;70.91;;
76339;Laerm;26644;50.248;19.032;2024-02-21T15:29:30;60.13;55.67;68.30;;
76339;Laerm;26644;50.248;19.032;2024-02-21T15:32:38;59.71;56.20;66.03;;
76339;Laerm;26644;50.248;19.032;2024-02-21T15:35:45;60.11;55.78;71.01;;
76339;Laerm;26644;50.248;19.032;2024-02-21T15:38:55;59.27;55.63;71.44;;
76339;Laerm;26644;50.248;19.032;2024-02-21T15:42:00;60.89;54.80;75.96;;
76339;Laerm;26644;50.248;19.032;2024-02-21T15:45:06;60.10;55.77;77.12;;
76339;Laerm;26644;50.248;19.032;2024-02-21T15:48:11;59.86;55.93;74.53;;
76339;Laerm;26644;50.248;19.032;2024-02-21T15:51:16;59.18;55.27;74.80;;
76339;Laerm;26644;50.248;19.032;2024-02-21T15:54:23;59.40;55.17;72.39;;
76339;Laerm;26644;50.248;19.032;2024-02-21T15:57:29;60.49;55.61;73.83;;
76339;Laerm;26644;50.248;19.032;2024-02-21T16:00:33;59.25;54.23;71.01;;
76339;Laerm;26644;50.248;19.032;2024-02-21T16:03:39;59.41;55.08;68.76;;
76339;Laerm;26644;50.248;19.032;2024-02-21T16:06:44;59.35;56.02;67.72;;
76339;Laerm;26644;50.248;19.032;2024-02-21T16:09:55;58.59;54.72;63.14;;
76339;Laerm;26644;50.248;19.032;2024-02-21T16:13:01;58.53;55.06;69.62;;
76339;Laerm;26644;50.248;19.032;2024-02-21T16:16:08;58.45;54.06;63.92;;
76339;Laerm;26644;50.248;19.032;2024-02-21T16:19:12;58.12;53.99;64.70;;
76339;Laerm;26644;50.248;19.032;2024-02-21T16:22:18;58.15;54.90;67.72;;
76339;Laerm;26644;50.248;19.032;2024-02-21T16:25:25;58.40;54.08;64.20;;
76339;Laerm;26644;50.248;19.032;2024-02-21T16:28:30;57.67;53.31;64.33;;
76339;Laerm;26644;50.248;19.032;2024-02-21T16:31:34;57.51;53.31;61.04;;
76339;Laerm;26644;50.248;19.032;2024-02-21T16:34:41;57.55;53.67;61.62;;
76339;Laerm;26644;50.248;19.032;2024-02-21T16:37:45;57.53;53.59;62.91;;
76339;Laerm;26644;50.248;19.032;2024-02-21T16:40:52;58.12;53.78;72.92;;
76339;Laerm;26644;50.248;19.032;2024-02-21T16:43:57;56.95;53.87;60.44;;
76339;Laerm;26644;50.248;19.032;2024-02-21T16:47:01;57.46;52.63;64.19;;
76339;Laerm;26644;50.248;19.032;2024-02-21T16:50:07;57.38;53.37;61.16;;
76339;Laerm;26644;50.248;19.032;2024-02-21T16:53:12;57.12;53.28;63.30;;
76339;Laerm;26644;50.248;19.032;2024-02-21T16:56:19;57.27;53.79;61.74;;
76339;Laerm;26644;50.248;19.032;2024-02-21T16:59:24;57.86;54.28;61.52;;
76339;Laerm;26644;50.248;19.032;2024-02-21T17:02:28;57.11;53.88;64.02;;
76339;Laerm;26644;50.248;19.032;2024-02-21T17:05:36;57.40;53.63;61.20;;